sensor_id;sensor_type;location;lat;lon;timestamp;P1;durP1;ratioP1;P2;durP2;ratioP2
11078;SDS011;5592;49.234;7.268;2023-11-19T00:00:28;0.80;;;0.80;;
11078;SDS011;5592;49.234;7.268;2023-11-19T00:02:54;0.60;;;0.60;;
11078;SDS011;5592;49.234;7.268;2023-11-19T00:05:20;2.10;;;0.70;;
11078;SDS011;5592;49.234;7.268;2023-11-19T00:07:45;0.80;;;0.70;;
11078;SDS011;5592;49.234;7.268;2023-11-19T00:10:12;0.90;;;0.80;;
11078;SDS011;5592;49.234;7.268;2023-11-19T00:12:40;0.60;;;0.60;;
11078;SDS011;5592;49.234;7.268;2023-11-19T00:15:09;0.90;;;0.80;;
11078;SDS011;5592;49.234;7.268;2023-11-19T00:17:39;0.70;;;0.70;;
11078;SDS011;5592;49.234;7.268;2023-11-19T00:20:18;0.70;;;0.70;;
11078;SDS011;5592;49.234;7.268;2023-11-19T00:22:44;5.73;;;0.90;;
11078;SDS011;5592;49.234;7.268;2023-11-19T00:25:13;0.87;;;0.87;;
11078;SDS011;5592;49.234;7.268;2023-11-19T00:27:39;0.97;;;0.90;;
11078;SDS011;5592;49.234;7.268;2023-11-19T00:30:05;0.77;;;0.77;;
11078;SDS011;5592;49.234;7.268;2023-11-19T00:32:34;0.60;;;0.60;;
11078;SDS011;5592;49.234;7.268;2023-11-19T00:35:01;1.00;;;0.83;;
11078;SDS011;5592;49.234;7.268;2023-11-19T00:37:27;1.40;;;0.90;;
11078;SDS011;5592;49.234;7.268;2023-11-19T00:39:53;0.70;;;0.70;;
11078;SDS011;5592;49.234;7.268;2023-11-19T00:42:21;0.70;;;0.70;;
11078;SDS011;5592;49.234;7.268;2023-11-19T00:44:47;1.10;;;0.80;;
11078;SDS011;5592;49.234;7.268;2023-11-19T00:47:12;0.80;;;0.80;;
11078;SDS011;5592;49.234;7.268;2023-11-19T00:49:38;1.60;;;0.90;;
11078;SDS011;5592;49.234;7.268;2023-11-19T00:52:04;1.00;;;0.90;;
11078;SDS011;5592;49.234;7.268;2023-11-19T00:54:31;3.17;;;1.37;;
11078;SDS011;5592;49.234;7.268;2023-11-19T00:56:58;0.97;;;0.80;;
11078;SDS011;5592;49.234;7.268;2023-11-19T00:59:24;3.40;;;1.23;;
11078;SDS011;5592;49.234;7.268;2023-11-19T01:01:49;1.37;;;1.27;;
11078;SDS011;5592;49.234;7.268;2023-11-19T01:04:16;1.20;;;1.10;;
11078;SDS011;5592;49.234;7.268;2023-11-19T01:06:42;1.67;;;1.27;;
11078;SDS011;5592;49.234;7.268;2023-11-19T01:09:08;1.07;;;1.07;;
11078;SDS011;5592;49.234;7.268;2023-11-19T01:11:34;1.83;;;1.23;;
11078;SDS011;5592;49.234;7.268;2023-11-19T01:13:59;2.00;;;1.20;;
11078;SDS011;5592;49.234;7.268;2023-11-19T01:16:25;1.30;;;1.20;;
11078;SDS011;5592;49.234;7.268;2023-11-19T01:18:51;1.10;;;1.00;;
11078;SDS011;5592;49.234;7.268;2023-11-19T01:21:17;1.67;;;1.27;;
11078;SDS011;5592;49.234;7.268;2023-11-19T01:23:43;1.23;;;1.13;;
11078;SDS011;5592;49.234;7.268;2023-11-19T01:26:09;1.20;;;1.10;;
11078;SDS011;5592;49.234;7.268;2023-11-19T01:28:35;0.90;;;0.90;;
11078;SDS011;5592;49.234;7.268;2023-11-19T01:31:01;1.20;;;1.10;;
11078;SDS011;5592;49.234;7.268;2023-11-19T01:33:28;2.70;;;1.30;;
11078;SDS011;5592;49.234;7.268;2023-11-19T01:35:54;1.57;;;1.30;;
11078;SDS011;5592;49.234;7.268;2023-11-19T01:38:23;1.20;;;1.10;;
11078;SDS011;5592;49.234;7.268;2023-11-19T01:40:49;1.20;;;1.10;;
11078;SDS011;5592;49.234;7.268;2023-11-19T01:46:00;2.10;;;1.50;;
11078;SDS011;5592;49.234;7.268;2023-11-19T01:48:28;1.83;;;1.63;;
11078;SDS011;5592;49.234;7.268;2023-11-19T01:50:55;1.80;;;1.50;;
11078;SDS011;5592;49.234;7.268;2023-11-19T01:53:21;3.13;;;1.50;;
11078;SDS011;5592;49.234;7.268;2023-11-19T01:55:47;2.10;;;1.33;;
11078;SDS011;5592;49.234;7.268;2023-11-19T01:58:14;2.03;;;1.80;;
11078;SDS011;5592;49.234;7.268;2023-11-19T02:00:40;1.80;;;1.20;;
11078;SDS011;5592;49.234;7.268;2023-11-19T02:03:07;1.97;;;1.60;;
11078;SDS011;5592;49.234;7.268;2023-11-19T02:05:33;1.40;;;1.30;;
11078;SDS011;5592;49.234;7.268;2023-11-19T02:07:59;1.50;;;1.40;;
11078;SDS011;5592;49.234;7.268;2023-11-19T02:10:25;1.60;;;1.50;;
11078;SDS011;5592;49.234;7.268;2023-11-19T02:12:51;1.83;;;1.60;;
11078;SDS011;5592;49.234;7.268;2023-11-19T02:15:17;6.60;;;1.70;;
11078;SDS011;5592;49.234;7.268;2023-11-19T02:17:49;1.70;;;1.60;;
11078;SDS011;5592;49.234;7.268;2023-11-19T02:20:15;2.10;;;1.90;;
11078;SDS011;5592;49.234;7.268;2023-11-19T02:22:41;3.30;;;2.30;;
11078;SDS011;5592;49.234;7.268;2023-11-19T02:25:29;5.80;;;1.97;;
11078;SDS011;5592;49.234;7.268;2023-11-19T02:27:58;2.17;;;1.97;;
11078;SDS011;5592;49.234;7.268;2023-11-19T02:30:25;1.90;;;1.80;;
11078;SDS011;5592;49.234;7.268;2023-11-19T02:32:55;1.83;;;1.57;;
11078;SDS011;5592;49.234;7.268;2023-11-19T02:35:23;2.90;;;1.90;;
11078;SDS011;5592;49.234;7.268;2023-11-19T02:37:51;2.50;;;2.30;;
11078;SDS011;5592;49.234;7.268;2023-11-19T02:40:17;2.37;;;2.17;;
11078;SDS011;5592;49.234;7.268;2023-11-19T02:42:43;2.50;;;2.30;;
11078;SDS011;5592;49.234;7.268;2023-11-19T02:45:12;2.50;;;2.10;;
11078;SDS011;5592;49.234;7.268;2023-11-19T02:47:40;4.43;;;2.10;;
11078;SDS011;5592;49.234;7.268;2023-11-19T02:50:07;3.17;;;2.87;;
11078;SDS011;5592;49.234;7.268;2023-11-19T02:52:43;2.70;;;2.50;;
11078;SDS011;5592;49.234;7.268;2023-11-19T02:55:12;3.70;;;3.13;;
11078;SDS011;5592;49.234;7.268;2023-11-19T02:57:41;8.83;;;4.07;;
11078;SDS011;5592;49.234;7.268;2023-11-19T03:00:15;4.63;;;3.63;;
11078;SDS011;5592;49.234;7.268;2023-11-19T03:02:42;5.33;;;3.90;;
11078;SDS011;5592;49.234;7.268;2023-11-19T03:05:13;4.30;;;3.80;;
11078;SDS011;5592;49.234;7.268;2023-11-19T03:07:43;5.33;;;4.30;;
11078;SDS011;5592;49.234;7.268;2023-11-19T03:10:09;5.07;;;4.23;;
11078;SDS011;5592;49.234;7.268;2023-11-19T03:12:38;5.70;;;5.03;;
11078;SDS011;5592;49.234;7.268;2023-11-19T03:15:08;4.40;;;4.00;;
11078;SDS011;5592;49.234;7.268;2023-11-19T03:17:35;5.00;;;3.87;;
11078;SDS011;5592;49.234;7.268;2023-11-19T03:20:05;5.00;;;4.50;;
11078;SDS011;5592;49.234;7.268;2023-11-19T03:22:32;5.00;;;4.60;;
11078;SDS011;5592;49.234;7.268;2023-11-19T03:24:59;5.47;;;4.30;;
11078;SDS011;5592;49.234;7.268;2023-11-19T03:27:25;4.63;;;4.20;;
11078;SDS011;5592;49.234;7.268;2023-11-19T03:29:50;4.53;;;4.10;;
11078;SDS011;5592;49.234;7.268;2023-11-19T03:32:16;8.80;;;5.43;;
11078;SDS011;5592;49.234;7.268;2023-11-19T03:34:41;6.87;;;4.63;;
11078;SDS011;5592;49.234;7.268;2023-11-19T03:37:07;6.97;;;5.13;;
11078;SDS011;5592;49.234;7.268;2023-11-19T03:39:33;5.23;;;4.27;;
11078;SDS011;5592;49.234;7.268;2023-11-19T03:41:59;6.20;;;4.07;;
11078;SDS011;5592;49.234;7.268;2023-11-19T03:44:25;5.20;;;4.10;;
11078;SDS011;5592;49.234;7.268;2023-11-19T03:46:52;4.87;;;3.90;;
11078;SDS011;5592;49.234;7.268;2023-11-19T03:49:17;5.40;;;3.60;;
11078;SDS011;5592;49.234;7.268;2023-11-19T03:51:43;3.50;;;3.20;;
11078;SDS011;5592;49.234;7.268;2023-11-19T03:54:09;4.03;;;3.67;;
11078;SDS011;5592;49.234;7.268;2023-11-19T03:56:34;9.97;;;3.60;;
11078;SDS011;5592;49.234;7.268;2023-11-19T03:59:00;5.50;;;4.07;;
11078;SDS011;5592;49.234;7.268;2023-11-19T04:01:25;4.10;;;3.80;;
11078;SDS011;5592;49.234;7.268;2023-11-19T04:03:51;5.50;;;5.00;;
11078;SDS011;5592;49.234;7.268;2023-11-19T04:06:20;5.93;;;4.47;;
11078;SDS011;5592;49.234;7.268;2023-11-19T04:08:46;5.07;;;4.20;;
11078;SDS011;5592;49.234;7.268;2023-11-19T04:11:12;5.63;;;5.03;;
11078;SDS011;5592;49.234;7.268;2023-11-19T04:13:38;7.33;;;4.63;;
11078;SDS011;5592;49.234;7.268;2023-11-19T04:16:03;4.93;;;4.13;;
11078;SDS011;5592;49.234;7.268;2023-11-19T04:18:29;7.13;;;4.50;;
11078;SDS011;5592;49.234;7.268;2023-11-19T04:20:57;8.30;;;4.30;;
11078;SDS011;5592;49.234;7.268;2023-11-19T04:23:22;6.10;;;5.10;;
11078;SDS011;5592;49.234;7.268;2023-11-19T04:25:49;5.70;;;4.53;;
11078;SDS011;5592;49.234;7.268;2023-11-19T04:28:15;4.63;;;4.23;;
11078;SDS011;5592;49.234;7.268;2023-11-19T04:30:41;6.20;;;4.50;;
11078;SDS011;5592;49.234;7.268;2023-11-19T04:33:07;5.70;;;4.10;;
11078;SDS011;5592;49.234;7.268;2023-11-19T04:35:32;5.10;;;4.47;;
11078;SDS011;5592;49.234;7.268;2023-11-19T04:37:58;4.60;;;4.10;;
11078;SDS011;5592;49.234;7.268;2023-11-19T04:40:24;3.83;;;3.43;;
11078;SDS011;5592;49.234;7.268;2023-11-19T04:42:49;4.57;;;4.17;;
11078;SDS011;5592;49.234;7.268;2023-11-19T04:45:15;4.40;;;3.47;;
11078;SDS011;5592;49.234;7.268;2023-11-19T04:47:41;5.53;;;3.53;;
11078;SDS011;5592;49.234;7.268;2023-11-19T04:50:07;4.80;;;3.87;;
11078;SDS011;5592;49.234;7.268;2023-11-19T04:52:37;4.43;;;3.30;;
11078;SDS011;5592;49.234;7.268;2023-11-19T04:55:05;3.60;;;3.30;;
11078;SDS011;5592;49.234;7.268;2023-11-19T04:57:31;6.00;;;3.67;;
11078;SDS011;5592;49.234;7.268;2023-11-19T04:59:58;7.90;;;3.10;;
11078;SDS011;5592;49.234;7.268;2023-11-19T05:02:24;3.30;;;3.00;;
11078;SDS011;5592;49.234;7.268;2023-11-19T05:04:49;3.83;;;2.67;;
11078;SDS011;5592;49.234;7.268;2023-11-19T05:07:15;3.57;;;2.90;;
11078;SDS011;5592;49.234;7.268;2023-11-19T05:09:41;3.60;;;3.17;;
11078;SDS011;5592;49.234;7.268;2023-11-19T05:12:08;3.70;;;2.90;;
11078;SDS011;5592;49.234;7.268;2023-11-19T05:14:36;3.40;;;2.43;;
11078;SDS011;5592;49.234;7.268;2023-11-19T05:17:02;4.20;;;2.70;;
11078;SDS011;5592;49.234;7.268;2023-11-19T05:19:28;3.00;;;2.23;;
11078;SDS011;5592;49.234;7.268;2023-11-19T05:21:54;2.50;;;2.23;;
11078;SDS011;5592;49.234;7.268;2023-11-19T05:24:19;2.70;;;2.20;;
11078;SDS011;5592;49.234;7.268;2023-11-19T05:26:48;4.73;;;2.40;;
11078;SDS011;5592;49.234;7.268;2023-11-19T05:29:15;4.97;;;2.50;;
11078;SDS011;5592;49.234;7.268;2023-11-19T05:31:40;4.03;;;2.30;;
11078;SDS011;5592;49.234;7.268;2023-11-19T05:34:06;4.57;;;2.27;;
11078;SDS011;5592;49.234;7.268;2023-11-19T05:36:32;2.00;;;1.80;;
11078;SDS011;5592;49.234;7.268;2023-11-19T05:38:58;2.57;;;2.37;;
11078;SDS011;5592;49.234;7.268;2023-11-19T05:41:23;2.30;;;2.00;;
11078;SDS011;5592;49.234;7.268;2023-11-19T05:43:49;4.57;;;2.07;;
11078;SDS011;5592;49.234;7.268;2023-11-19T05:46:14;2.30;;;2.10;;
11078;SDS011;5592;49.234;7.268;2023-11-19T05:48:41;2.80;;;2.27;;
11078;SDS011;5592;49.234;7.268;2023-11-19T05:51:07;2.33;;;2.13;;
11078;SDS011;5592;49.234;7.268;2023-11-19T05:53:33;5.47;;;2.10;;
11078;SDS011;5592;49.234;7.268;2023-11-19T05:55:59;2.30;;;2.10;;
11078;SDS011;5592;49.234;7.268;2023-11-19T05:58:28;6.53;;;1.97;;
11078;SDS011;5592;49.234;7.268;2023-11-19T06:00:55;1.83;;;1.73;;
11078;SDS011;5592;49.234;7.268;2023-11-19T06:03:21;3.27;;;2.00;;
11078;SDS011;5592;49.234;7.268;2023-11-19T06:05:48;1.90;;;1.80;;
11078;SDS011;5592;49.234;7.268;2023-11-19T06:08:14;8.30;;;2.00;;
11078;SDS011;5592;49.234;7.268;2023-11-19T06:10:41;1.90;;;1.80;;
11078;SDS011;5592;49.234;7.268;2023-11-19T06:13:07;3.07;;;2.10;;
11078;SDS011;5592;49.234;7.268;2023-11-19T06:15:35;2.87;;;2.00;;
11078;SDS011;5592;49.234;7.268;2023-11-19T06:18:01;2.90;;;1.90;;
11078;SDS011;5592;49.234;7.268;2023-11-19T06:20:32;1.73;;;1.60;;
11078;SDS011;5592;49.234;7.268;2023-11-19T06:22:58;1.93;;;1.80;;
11078;SDS011;5592;49.234;7.268;2023-11-19T06:25:25;2.70;;;1.97;;
11078;SDS011;5592;49.234;7.268;2023-11-19T06:27:51;2.40;;;1.80;;
11078;SDS011;5592;49.234;7.268;2023-11-19T06:30:17;1.30;;;1.20;;
11078;SDS011;5592;49.234;7.268;2023-11-19T06:32:42;1.20;;;1.10;;
11078;SDS011;5592;49.234;7.268;2023-11-19T06:35:08;1.20;;;1.10;;
11078;SDS011;5592;49.234;7.268;2023-11-19T06:37:35;1.60;;;1.50;;
11078;SDS011;5592;49.234;7.268;2023-11-19T06:40:01;1.53;;;1.43;;
11078;SDS011;5592;49.234;7.268;2023-11-19T06:42:27;2.07;;;1.40;;
11078;SDS011;5592;49.234;7.268;2023-11-19T06:44:53;5.80;;;1.70;;
11078;SDS011;5592;49.234;7.268;2023-11-19T06:47:21;2.80;;;1.90;;
11078;SDS011;5592;49.234;7.268;2023-11-19T06:49:47;2.07;;;1.97;;
11078;SDS011;5592;49.234;7.268;2023-11-19T06:52:12;2.67;;;2.17;;
11078;SDS011;5592;49.234;7.268;2023-11-19T06:54:39;5.20;;;2.30;;
11078;SDS011;5592;49.234;7.268;2023-11-19T06:57:04;2.90;;;2.30;;
11078;SDS011;5592;49.234;7.268;2023-11-19T06:59:30;4.20;;;2.37;;
11078;SDS011;5592;49.234;7.268;2023-11-19T07:01:57;3.40;;;2.23;;
11078;SDS011;5592;49.234;7.268;2023-11-19T07:04:24;2.23;;;1.97;;
11078;SDS011;5592;49.234;7.268;2023-11-19T07:06:49;3.40;;;2.53;;
11078;SDS011;5592;49.234;7.268;2023-11-19T07:09:17;3.53;;;2.30;;
11078;SDS011;5592;49.234;7.268;2023-11-19T07:11:43;4.40;;;2.20;;
11078;SDS011;5592;49.234;7.268;2023-11-19T07:14:10;4.93;;;2.73;;
11078;SDS011;5592;49.234;7.268;2023-11-19T07:16:37;4.40;;;2.87;;
11078;SDS011;5592;49.234;7.268;2023-11-19T07:19:04;7.60;;;3.00;;
11078;SDS011;5592;49.234;7.268;2023-11-19T07:21:30;3.50;;;2.57;;
11078;SDS011;5592;49.234;7.268;2023-11-19T07:23:56;3.43;;;3.07;;
11078;SDS011;5592;49.234;7.268;2023-11-19T07:26:22;4.80;;;2.73;;
11078;SDS011;5592;49.234;7.268;2023-11-19T07:28:48;4.47;;;2.77;;
11078;SDS011;5592;49.234;7.268;2023-11-19T07:31:14;3.70;;;2.90;;
11078;SDS011;5592;49.234;7.268;2023-11-19T07:33:39;3.50;;;3.03;;
11078;SDS011;5592;49.234;7.268;2023-11-19T07:36:07;4.00;;;3.20;;
11078;SDS011;5592;49.234;7.268;2023-11-19T07:38:33;3.03;;;2.70;;
11078;SDS011;5592;49.234;7.268;2023-11-19T07:40:59;5.40;;;2.60;;
11078;SDS011;5592;49.234;7.268;2023-11-19T07:43:25;10.47;;;2.80;;
11078;SDS011;5592;49.234;7.268;2023-11-19T07:45:54;4.70;;;2.63;;
11078;SDS011;5592;49.234;7.268;2023-11-19T07:48:20;5.20;;;2.10;;
11078;SDS011;5592;49.234;7.268;2023-11-19T07:50:49;4.93;;;2.33;;
11078;SDS011;5592;49.234;7.268;2023-11-19T07:53:15;4.10;;;2.60;;
11078;SDS011;5592;49.234;7.268;2023-11-19T07:55:41;5.90;;;2.73;;
11078;SDS011;5592;49.234;7.268;2023-11-19T07:58:08;5.83;;;2.53;;
11078;SDS011;5592;49.234;7.268;2023-11-19T08:00:35;5.10;;;2.63;;
11078;SDS011;5592;49.234;7.268;2023-11-19T08:03:01;2.53;;;2.30;;
11078;SDS011;5592;49.234;7.268;2023-11-19T08:05:26;2.73;;;2.33;;
11078;SDS011;5592;49.234;7.268;2023-11-19T08:07:52;4.50;;;2.33;;
11078;SDS011;5592;49.234;7.268;2023-11-19T08:10:18;3.00;;;2.40;;
11078;SDS011;5592;49.234;7.268;2023-11-19T08:12:44;5.93;;;2.27;;
11078;SDS011;5592;49.234;7.268;2023-11-19T08:15:10;4.67;;;2.10;;
11078;SDS011;5592;49.234;7.268;2023-11-19T08:17:36;5.10;;;2.23;;
11078;SDS011;5592;49.234;7.268;2023-11-19T08:20:02;3.97;;;1.90;;
11078;SDS011;5592;49.234;7.268;2023-11-19T08:22:30;4.07;;;2.17;;
11078;SDS011;5592;49.234;7.268;2023-11-19T08:24:55;2.30;;;1.70;;
11078;SDS011;5592;49.234;7.268;2023-11-19T08:27:21;3.20;;;2.07;;
11078;SDS011;5592;49.234;7.268;2023-11-19T08:29:54;2.90;;;1.97;;
11078;SDS011;5592;49.234;7.268;2023-11-19T08:32:26;2.10;;;1.50;;
11078;SDS011;5592;49.234;7.268;2023-11-19T08:34:52;1.93;;;1.40;;
11078;SDS011;5592;49.234;7.268;2023-11-19T08:37:18;2.60;;;1.60;;
11078;SDS011;5592;49.234;7.268;2023-11-19T08:39:49;2.00;;;1.70;;
11078;SDS011;5592;49.234;7.268;2023-11-19T08:42:16;2.30;;;1.57;;
11078;SDS011;5592;49.234;7.268;2023-11-19T08:44:42;1.60;;;1.50;;
11078;SDS011;5592;49.234;7.268;2023-11-19T08:47:11;2.77;;;1.43;;
11078;SDS011;5592;49.234;7.268;2023-11-19T08:49:38;2.63;;;1.60;;
11078;SDS011;5592;49.234;7.268;2023-11-19T08:52:04;3.40;;;1.47;;
11078;SDS011;5592;49.234;7.268;2023-11-19T08:54:32;1.40;;;1.10;;
11078;SDS011;5592;49.234;7.268;2023-11-19T08:56:58;1.63;;;1.10;;
11078;SDS011;5592;49.234;7.268;2023-11-19T08:59:24;2.00;;;1.10;;
11078;SDS011;5592;49.234;7.268;2023-11-19T09:01:50;3.50;;;1.10;;
11078;SDS011;5592;49.234;7.268;2023-11-19T09:04:16;1.47;;;1.00;;
11078;SDS011;5592;49.234;7.268;2023-11-19T09:06:42;2.60;;;1.40;;
11078;SDS011;5592;49.234;7.268;2023-11-19T09:09:08;1.33;;;1.00;;
11078;SDS011;5592;49.234;7.268;2023-11-19T09:11:34;1.70;;;1.00;;
11078;SDS011;5592;49.234;7.268;2023-11-19T09:14:00;4.57;;;1.20;;
11078;SDS011;5592;49.234;7.268;2023-11-19T09:16:25;2.83;;;1.37;;
11078;SDS011;5592;49.234;7.268;2023-11-19T09:18:51;2.60;;;1.37;;
11078;SDS011;5592;49.234;7.268;2023-11-19T09:21:16;0.80;;;0.80;;
11078;SDS011;5592;49.234;7.268;2023-11-19T09:23:42;1.53;;;1.17;;
11078;SDS011;5592;49.234;7.268;2023-11-19T09:26:08;2.80;;;1.27;;
11078;SDS011;5592;49.234;7.268;2023-11-19T09:28:37;3.40;;;1.63;;
11078;SDS011;5592;49.234;7.268;2023-11-19T09:31:12;4.10;;;1.13;;
11078;SDS011;5592;49.234;7.268;2023-11-19T09:33:38;2.03;;;1.40;;
11078;SDS011;5592;49.234;7.268;2023-11-19T09:36:07;1.77;;;1.37;;
11078;SDS011;5592;49.234;7.268;2023-11-19T09:38:33;1.40;;;1.30;;
11078;SDS011;5592;49.234;7.268;2023-11-19T09:40:58;1.70;;;1.10;;
11078;SDS011;5592;49.234;7.268;2023-11-19T09:43:26;2.20;;;1.23;;
11078;SDS011;5592;49.234;7.268;2023-11-19T09:45:55;10.20;;;1.27;;
11078;SDS011;5592;49.234;7.268;2023-11-19T09:48:22;2.63;;;1.00;;
11078;SDS011;5592;49.234;7.268;2023-11-19T09:50:51;3.70;;;1.17;;
11078;SDS011;5592;49.234;7.268;2023-11-19T09:53:17;1.23;;;1.10;;
11078;SDS011;5592;49.234;7.268;2023-11-19T09:55:45;3.27;;;0.83;;
11078;SDS011;5592;49.234;7.268;2023-11-19T09:58:11;4.30;;;1.30;;
11078;SDS011;5592;49.234;7.268;2023-11-19T10:00:38;3.47;;;1.10;;
11078;SDS011;5592;49.234;7.268;2023-11-19T10:03:05;4.83;;;1.40;;
11078;SDS011;5592;49.234;7.268;2023-11-19T10:05:33;4.30;;;1.20;;
11078;SDS011;5592;49.234;7.268;2023-11-19T10:07:59;1.67;;;1.10;;
11078;SDS011;5592;49.234;7.268;2023-11-19T10:10:28;4.43;;;1.00;;
11078;SDS011;5592;49.234;7.268;2023-11-19T10:12:53;3.50;;;1.00;;
11078;SDS011;5592;49.234;7.268;2023-11-19T10:15:21;1.07;;;0.90;;
11078;SDS011;5592;49.234;7.268;2023-11-19T10:17:48;2.37;;;1.07;;
11078;SDS011;5592;49.234;7.268;2023-11-19T10:20:14;1.80;;;1.00;;
11078;SDS011;5592;49.234;7.268;2023-11-19T10:22:39;2.30;;;1.20;;
11078;SDS011;5592;49.234;7.268;2023-11-19T10:25:06;1.27;;;0.97;;
11078;SDS011;5592;49.234;7.268;2023-11-19T10:27:47;2.60;;;1.10;;
11078;SDS011;5592;49.234;7.268;2023-11-19T10:30:13;2.13;;;1.13;;
11078;SDS011;5592;49.234;7.268;2023-11-19T10:32:44;5.03;;;1.80;;
11078;SDS011;5592;49.234;7.268;2023-11-19T10:35:09;2.87;;;1.20;;
11078;SDS011;5592;49.234;7.268;2023-11-19T10:37:37;3.90;;;1.13;;
11078;SDS011;5592;49.234;7.268;2023-11-19T10:40:06;3.57;;;1.30;;
11078;SDS011;5592;49.234;7.268;2023-11-19T10:42:35;1.50;;;1.00;;
11078;SDS011;5592;49.234;7.268;2023-11-19T10:45:01;4.73;;;1.30;;
11078;SDS011;5592;49.234;7.268;2023-11-19T10:47:27;2.63;;;1.23;;
11078;SDS011;5592;49.234;7.268;2023-11-19T10:49:55;2.40;;;1.53;;
11078;SDS011;5592;49.234;7.268;2023-11-19T10:52:21;4.00;;;1.20;;
11078;SDS011;5592;49.234;7.268;2023-11-19T10:54:49;1.93;;;1.10;;
11078;SDS011;5592;49.234;7.268;2023-11-19T10:57:19;2.50;;;1.13;;
11078;SDS011;5592;49.234;7.268;2023-11-19T10:59:50;4.63;;;1.37;;
11078;SDS011;5592;49.234;7.268;2023-11-19T11:02:21;3.60;;;1.40;;
11078;SDS011;5592;49.234;7.268;2023-11-19T11:04:50;4.00;;;1.33;;
11078;SDS011;5592;49.234;7.268;2023-11-19T11:07:17;1.70;;;1.03;;
11078;SDS011;5592;49.234;7.268;2023-11-19T11:09:46;8.27;;;1.40;;
11078;SDS011;5592;49.234;7.268;2023-11-19T11:12:14;2.90;;;1.20;;
11078;SDS011;5592;49.234;7.268;2023-11-19T11:14:45;3.00;;;1.10;;
11078;SDS011;5592;49.234;7.268;2023-11-19T11:17:11;3.33;;;1.50;;
11078;SDS011;5592;49.234;7.268;2023-11-19T11:19:42;4.10;;;1.37;;
11078;SDS011;5592;49.234;7.268;2023-11-19T11:22:08;2.73;;;1.10;;
11078;SDS011;5592;49.234;7.268;2023-11-19T11:24:47;2.77;;;1.10;;
11078;SDS011;5592;49.234;7.268;2023-11-19T11:27:53;6.83;;;1.80;;
11078;SDS011;5592;49.234;7.268;2023-11-19T11:36:07;2.90;;;1.00;;
11078;SDS011;5592;49.234;7.268;2023-11-19T11:38:44;1.60;;;1.20;;
11078;SDS011;5592;49.234;7.268;2023-11-19T11:41:20;2.30;;;1.10;;
11078;SDS011;5592;49.234;7.268;2023-11-19T11:48:58;5.53;;;1.80;;
11078;SDS011;5592;49.234;7.268;2023-11-19T11:59:43;2.47;;;1.30;;
11078;SDS011;5592;49.234;7.268;2023-11-19T12:02:09;9.13;;;1.50;;
11078;SDS011;5592;49.234;7.268;2023-11-19T12:04:39;2.43;;;1.07;;
11078;SDS011;5592;49.234;7.268;2023-11-19T12:07:09;5.83;;;1.10;;
11078;SDS011;5592;49.234;7.268;2023-11-19T12:09:41;3.40;;;1.67;;
11078;SDS011;5592;49.234;7.268;2023-11-19T12:12:23;3.77;;;1.20;;
11078;SDS011;5592;49.234;7.268;2023-11-19T12:19:59;6.83;;;2.30;;
11078;SDS011;5592;49.234;7.268;2023-11-19T12:22:25;2.70;;;1.20;;
11078;SDS011;5592;49.234;7.268;2023-11-19T12:24:51;4.80;;;1.40;;
11078;SDS011;5592;49.234;7.268;2023-11-19T12:27:18;2.40;;;0.87;;
11078;SDS011;5592;49.234;7.268;2023-11-19T12:29:47;5.73;;;1.37;;
11078;SDS011;5592;49.234;7.268;2023-11-19T12:32:13;6.50;;;1.63;;
11078;SDS011;5592;49.234;7.268;2023-11-19T12:34:38;3.43;;;1.20;;
11078;SDS011;5592;49.234;7.268;2023-11-19T12:37:04;2.80;;;1.00;;
11078;SDS011;5592;49.234;7.268;2023-11-19T12:39:31;2.80;;;1.00;;
11078;SDS011;5592;49.234;7.268;2023-11-19T12:41:57;2.73;;;1.13;;
11078;SDS011;5592;49.234;7.268;2023-11-19T12:44:24;5.17;;;1.40;;
11078;SDS011;5592;49.234;7.268;2023-11-19T12:47:02;4.20;;;1.50;;
11078;SDS011;5592;49.234;7.268;2023-11-19T12:49:29;9.23;;;1.70;;
11078;SDS011;5592;49.234;7.268;2023-11-19T12:51:55;5.23;;;1.20;;
11078;SDS011;5592;49.234;7.268;2023-11-19T12:54:31;6.93;;;1.00;;
11078;SDS011;5592;49.234;7.268;2023-11-19T12:56:57;2.17;;;1.13;;
11078;SDS011;5592;49.234;7.268;2023-11-19T12:59:23;2.33;;;1.37;;
11078;SDS011;5592;49.234;7.268;2023-11-19T13:01:58;4.17;;;1.07;;
11078;SDS011;5592;49.234;7.268;2023-11-19T13:04:28;4.63;;;1.20;;
11078;SDS011;5592;49.234;7.268;2023-11-19T13:07:01;6.30;;;1.50;;
11078;SDS011;5592;49.234;7.268;2023-11-19T13:09:30;5.47;;;1.17;;
11078;SDS011;5592;49.234;7.268;2023-11-19T13:11:56;3.67;;;1.03;;
11078;SDS011;5592;49.234;7.268;2023-11-19T13:14:23;2.90;;;1.10;;
11078;SDS011;5592;49.234;7.268;2023-11-19T13:17:01;4.77;;;1.20;;
11078;SDS011;5592;49.234;7.268;2023-11-19T13:19:26;4.80;;;1.50;;
11078;SDS011;5592;49.234;7.268;2023-11-19T13:21:52;3.70;;;1.20;;
11078;SDS011;5592;49.234;7.268;2023-11-19T13:24:18;2.93;;;1.20;;
11078;SDS011;5592;49.234;7.268;2023-11-19T13:26:43;5.33;;;1.57;;
11078;SDS011;5592;49.234;7.268;2023-11-19T13:29:09;2.97;;;1.50;;
11078;SDS011;5592;49.234;7.268;2023-11-19T13:31:35;5.23;;;1.40;;
11078;SDS011;5592;49.234;7.268;2023-11-19T13:34:01;7.60;;;1.37;;
11078;SDS011;5592;49.234;7.268;2023-11-19T13:36:27;3.87;;;1.63;;
11078;SDS011;5592;49.234;7.268;2023-11-19T13:38:52;4.13;;;1.50;;
11078;SDS011;5592;49.234;7.268;2023-11-19T13:41:23;2.03;;;1.27;;
11078;SDS011;5592;49.234;7.268;2023-11-19T13:43:52;4.67;;;1.63;;
11078;SDS011;5592;49.234;7.268;2023-11-19T13:46:18;2.50;;;1.30;;
11078;SDS011;5592;49.234;7.268;2023-11-19T13:48:45;2.40;;;1.13;;
11078;SDS011;5592;49.234;7.268;2023-11-19T13:51:10;5.00;;;0.97;;
11078;SDS011;5592;49.234;7.268;2023-11-19T13:53:36;2.30;;;1.10;;
11078;SDS011;5592;49.234;7.268;2023-11-19T13:56:02;8.13;;;1.27;;
11078;SDS011;5592;49.234;7.268;2023-11-19T13:58:28;3.00;;;1.23;;
11078;SDS011;5592;49.234;7.268;2023-11-19T14:00:54;6.80;;;1.40;;
11078;SDS011;5592;49.234;7.268;2023-11-19T14:03:19;6.00;;;1.20;;
11078;SDS011;5592;49.234;7.268;2023-11-19T14:05:45;8.13;;;1.47;;
11078;SDS011;5592;49.234;7.268;2023-11-19T14:08:11;6.00;;;1.30;;
11078;SDS011;5592;49.234;7.268;2023-11-19T14:10:37;10.13;;;1.50;;
11078;SDS011;5592;49.234;7.268;2023-11-19T14:13:07;6.40;;;1.50;;
11078;SDS011;5592;49.234;7.268;2023-11-19T14:15:33;3.80;;;1.03;;
11078;SDS011;5592;49.234;7.268;2023-11-19T14:17:59;4.17;;;1.80;;
11078;SDS011;5592;49.234;7.268;2023-11-19T14:20:24;5.13;;;1.50;;
11078;SDS011;5592;49.234;7.268;2023-11-19T14:22:50;8.43;;;1.40;;
11078;SDS011;5592;49.234;7.268;2023-11-19T14:25:17;6.07;;;1.47;;
11078;SDS011;5592;49.234;7.268;2023-11-19T14:27:43;8.43;;;1.50;;
11078;SDS011;5592;49.234;7.268;2023-11-19T14:30:11;2.50;;;1.30;;
11078;SDS011;5592;49.234;7.268;2023-11-19T14:32:39;11.00;;;1.40;;
11078;SDS011;5592;49.234;7.268;2023-11-19T14:35:05;10.73;;;3.20;;
11078;SDS011;5592;49.234;7.268;2023-11-19T14:37:34;5.70;;;1.00;;
11078;SDS011;5592;49.234;7.268;2023-11-19T14:40:00;2.60;;;1.30;;
11078;SDS011;5592;49.234;7.268;2023-11-19T14:42:30;8.50;;;1.67;;
11078;SDS011;5592;49.234;7.268;2023-11-19T14:44:56;5.97;;;1.63;;
11078;SDS011;5592;49.234;7.268;2023-11-19T14:47:22;3.70;;;1.30;;
11078;SDS011;5592;49.234;7.268;2023-11-19T14:49:48;3.87;;;1.17;;
11078;SDS011;5592;49.234;7.268;2023-11-19T14:52:14;4.07;;;1.37;;
11078;SDS011;5592;49.234;7.268;2023-11-19T14:54:40;3.13;;;1.20;;
11078;SDS011;5592;49.234;7.268;2023-11-19T14:57:06;4.67;;;1.50;;
11078;SDS011;5592;49.234;7.268;2023-11-19T14:59:35;3.77;;;1.17;;
11078;SDS011;5592;49.234;7.268;2023-11-19T15:02:04;5.03;;;1.63;;
11078;SDS011;5592;49.234;7.268;2023-11-19T15:04:30;7.30;;;1.87;;
11078;SDS011;5592;49.234;7.268;2023-11-19T15:06:57;6.67;;;1.50;;
11078;SDS011;5592;49.234;7.268;2023-11-19T15:09:23;8.57;;;1.83;;
11078;SDS011;5592;49.234;7.268;2023-11-19T15:11:49;6.03;;;1.97;;
11078;SDS011;5592;49.234;7.268;2023-11-19T15:14:15;6.83;;;1.70;;
11078;SDS011;5592;49.234;7.268;2023-11-19T15:16:43;7.00;;;1.60;;
11078;SDS011;5592;49.234;7.268;2023-11-19T15:19:15;8.33;;;1.83;;
11078;SDS011;5592;49.234;7.268;2023-11-19T15:21:41;7.03;;;1.80;;
11078;SDS011;5592;49.234;7.268;2023-11-19T15:24:07;15.60;;;2.60;;
11078;SDS011;5592;49.234;7.268;2023-11-19T15:26:34;8.83;;;2.23;;